createdAt,value
2022-09-28T00:00:03.289Z,94810.19
2022-09-28T00:03:00.188Z,94813.00
2022-09-28T00:06:06.331Z,94805.63
2022-09-28T00:09:03.157Z,94797.47
2022-09-28T00:12:00.101Z,94807.66
2022-09-28T00:14:57.097Z,94793.19
2022-09-28T00:17:53.909Z,94796.88
2022-09-28T00:21:08.915Z,94781.44
2022-09-28T00:24:13.289Z,94786.00
2022-09-28T00:27:10.138Z,94774.03
2022-09-28T00:30:08.126Z,94764.31
2022-09-28T00:33:04.915Z,94767.28
2022-09-28T00:36:01.968Z,94754.72
2022-09-28T00:39:03.122Z,94756.03
2022-09-28T00:42:00.140Z,94746.84
2022-09-28T00:44:58.661Z,94742.66
2022-09-28T00:47:58.360Z,94745.00
2022-09-28T00:50:56.524Z,94738.81
2022-09-28T00:53:56.074Z,94729.94
2022-09-28T00:56:52.932Z,94721.63
2022-09-28T00:59:51.387Z,94712.75
2022-09-28T01:02:48.287Z,94718.19
2022-09-28T01:05:46.946Z,94709.19
2022-09-28T01:08:45.821Z,94707.03
2022-09-28T01:11:43.689Z,94711.88
2022-09-28T01:14:41.279Z,94701.03
2022-09-28T01:18:19.616Z,94686.16
2022-09-28T01:21:25.903Z,94684.94
2022-09-28T01:24:45.265Z,94673.47
2022-09-28T01:27:51.975Z,94674.59
2022-09-28T01:31:07.450Z,94668.47
2022-09-28T01:34:26.630Z,94669.59
2022-09-28T01:37:36.180Z,94663.72
2022-09-28T01:40:34.980Z,94669.94
2022-09-28T01:43:39.382Z,94658.81
2022-09-28T01:46:42.141Z,94652.31
2022-09-28T01:49:47.732Z,94658.84
2022-09-28T01:53:19.122Z,94655.31
2022-09-28T01:56:24.536Z,94645.44
2022-09-28T01:59:34.549Z,94645.44
2022-09-28T02:03:01.801Z,94632.00
2022-09-28T02:06:12.279Z,94632.47
2022-09-28T02:09:17.184Z,94622.63
2022-09-28T02:12:25.715Z,94625.66
2022-09-28T02:15:53.844Z,94617.97
2022-09-28T02:18:51.453Z,94601.91
2022-09-28T02:22:13.183Z,94606.47
2022-09-28T02:25:21.096Z,94588.56
2022-09-28T02:28:18.073Z,94586.56
2022-09-28T02:31:14.931Z,94585.44
2022-09-28T02:34:11.920Z,94581.56
2022-09-28T02:37:08.839Z,94566.06
2022-09-28T02:40:25.203Z,94558.88
2022-09-28T02:43:31.395Z,94559.22
2022-09-28T02:46:37.170Z,94558.09
2022-09-28T02:50:13.024Z,94559.75
2022-09-28T02:53:33.418Z,94558.47
2022-09-28T02:57:11.077Z,94553.81
2022-09-28T03:00:12.115Z,94547.78
2022-09-28T03:03:28.036Z,94555.94
2022-09-28T03:06:43.900Z,94543.75
2022-09-28T03:09:54.210Z,94541.31
2022-09-28T03:12:53.552Z,94549.34
2022-09-28T03:15:50.355Z,94541.94
2022-09-28T03:18:48.297Z,94540.25
2022-09-28T03:21:45.150Z,94534.41
2022-09-28T03:24:41.956Z,94541.09
2022-09-28T03:27:39.533Z,94534.66
2022-09-28T03:30:36.610Z,94525.03
2022-09-28T03:33:33.438Z,94531.25
2022-09-28T03:36:30.296Z,94516.50
2022-09-28T03:39:27.104Z,94516.84
2022-09-28T03:42:23.936Z,94511.06
2022-09-28T03:45:20.759Z,94510.91
2022-09-28T03:48:20.606Z,94499.66
2022-09-28T03:51:20.779Z,94499.94
2022-09-28T03:54:17.647Z,94483.13
2022-09-28T03:57:14.449Z,94478.78
2022-09-28T04:00:11.931Z,94468.88
2022-09-28T04:03:09.231Z,94472.66
2022-09-28T04:06:06.038Z,94463.75
2022-09-28T04:09:03.105Z,94447.38
2022-09-28T04:12:04.317Z,94446.84
2022-09-28T04:15:01.367Z,94450.63
2022-09-28T04:17:58.178Z,94439.44
2022-09-28T04:21:03.755Z,94437.69
2022-09-28T04:24:00.602Z,94443.09
2022-09-28T04:27:17.370Z,94430.50
2022-09-28T04:30:14.214Z,94427.72
2022-09-28T04:33:11.144Z,94416.78
2022-09-28T04:36:09.433Z,94422.84
2022-09-28T04:39:06.477Z,94413.00
2022-09-28T04:42:03.345Z,94401.97
2022-09-28T04:45:01.013Z,94406.50
2022-09-28T04:47:57.834Z,94387.03
2022-09-28T04:50:56.721Z,94397.66
2022-09-28T04:53:53.569Z,94396.88
2022-09-28T04:56:52.781Z,94399.94
2022-09-28T04:59:49.759Z,94387.91
2022-09-28T05:02:46.641Z,94388.22
2022-09-28T05:05:47.759Z,94390.25
2022-09-28T05:08:46.893Z,94393.19
2022-09-28T05:11:43.834Z,94397.06
2022-09-28T05:14:41.277Z,94394.53
2022-09-28T05:17:38.077Z,94398.41
2022-09-28T05:20:39.722Z,94397.66
2022-09-28T05:23:36.605Z,94401.59
2022-09-28T05:26:36.541Z,94399.56
2022-09-28T05:29:33.343Z,94393.03
2022-09-28T05:32:30.159Z,94393.03
2022-09-28T05:35:27.346Z,94394.09
2022-09-28T05:38:24.695Z,94405.41
2022-09-28T05:41:21.507Z,94400.09
2022-09-28T05:44:18.429Z,94394.66
2022-09-28T05:47:15.277Z,94394.34
2022-09-28T05:50:15.679Z,94384.91
2022-09-28T05:53:12.543Z,94379.34
2022-09-28T05:56:09.373Z,94386.56
2022-09-28T05:59:06.246Z,94378.91
2022-09-28T06:02:05.301Z,94383.09
2022-09-28T06:05:02.190Z,94388.00
2022-09-28T06:07:59.637Z,94367.50
2022-09-28T06:11:01.291Z,94376.06
2022-09-28T06:13:58.125Z,94381.59
2022-09-28T06:16:54.959Z,94381.81
2022-09-28T06:19:53.189Z,94383.38
2022-09-28T06:22:54.270Z,94374.41
2022-09-28T06:25:51.162Z,94389.56
2022-09-28T06:28:48.142Z,94386.16
2022-09-28T06:31:46.062Z,94384.81
2022-09-28T06:34:42.906Z,94392.91
2022-09-28T06:37:39.776Z,94400.00
2022-09-28T06:40:38.347Z,94397.13
2022-09-28T06:43:35.231Z,94393.66
2022-09-28T06:46:32.173Z,94393.91
2022-09-28T06:49:30.256Z,94384.28
2022-09-28T06:52:27.134Z,94393.13
2022-09-28T06:55:24.953Z,94393.56
2022-09-28T06:58:22.731Z,94400.13
2022-09-28T07:01:19.879Z,94394.38
2022-09-28T07:04:19.941Z,94401.03
2022-09-28T07:07:16.875Z,94407.09
2022-09-28T07:10:13.875Z,94409.44
2022-09-28T07:13:32.215Z,94407.25
2022-09-28T07:16:44.141Z,94409.44
2022-09-28T07:19:45.237Z,94411.00
2022-09-28T07:22:43.890Z,94420.44
2022-09-28T07:25:45.428Z,94425.09
2022-09-28T07:28:43.017Z,94417.22
2022-09-28T07:31:40.461Z,94425.53
2022-09-28T07:34:43.504Z,94427.94
2022-09-28T07:37:40.306Z,94431.97
2022-09-28T07:40:55.737Z,94437.47
2022-09-28T07:43:52.806Z,94436.03
2022-09-28T07:46:50.579Z,94432.50
2022-09-28T07:49:49.377Z,94435.25
2022-09-28T07:52:46.189Z,94448.78
2022-09-28T07:55:42.985Z,94449.22
2022-09-28T07:58:41.062Z,94454.22
2022-09-28T08:01:37.928Z,94455.19
2022-09-28T08:04:34.759Z,94469.16
2022-09-28T08:07:32.525Z,94469.06
2022-09-28T08:10:29.381Z,94475.50
2022-09-28T08:13:27.208Z,94473.63
2022-09-28T08:16:24.376Z,94480.34
2022-09-28T08:19:21.245Z,94486.56
2022-09-28T08:22:19.955Z,94489.56
2022-09-28T08:25:16.836Z,94495.34
2022-09-28T08:28:13.653Z,94495.59
2022-09-28T08:31:10.798Z,94498.56
2022-09-28T08:34:08.172Z,94499.78
2022-09-28T08:37:09.204Z,94506.22
2022-09-28T08:40:16.309Z,94519.59
2022-09-28T08:44:08.232Z,94510.16
2022-09-28T08:47:44.463Z,94525.06
2022-09-28T08:50:54.285Z,94533.78
2022-09-28T08:54:18.732Z,94553.41
2022-09-28T08:57:51.579Z,94558.97
2022-09-28T09:00:51.938Z,94560.72
2022-09-28T09:03:49.613Z,94569.78
2022-09-28T09:07:24.313Z,94573.97
2022-09-28T09:10:50.685Z,94571.84
2022-09-28T09:14:36.617Z,94569.31
2022-09-28T09:18:03.215Z,94575.56
2022-09-28T09:21:15.429Z,94575.97
2022-09-28T09:24:40.268Z,94585.00
2022-09-28T09:27:48.176Z,94589.84
2022-09-28T09:31:46.739Z,94597.94
2022-09-28T09:34:59.020Z,94598.69
2022-09-28T09:38:36.129Z,94603.72
2022-09-28T09:41:54.371Z,94608.72
2022-09-28T09:45:16.723Z,94604.88
2022-09-28T09:48:51.394Z,94607.34
2022-09-28T09:52:14.624Z,94610.00
2022-09-28T09:55:30.135Z,94611.47
2022-09-28T09:58:38.795Z,94611.19
2022-09-28T10:01:40.608Z,94609.41
2022-09-28T10:04:46.719Z,94613.19
2022-09-28T10:08:10.847Z,94616.00
2022-09-28T10:11:12.693Z,94621.34
2022-09-28T10:14:17.303Z,94620.28
2022-09-28T10:17:20.149Z,94621.63
2022-09-28T10:20:17.623Z,94620.41
2022-09-28T10:23:24.769Z,94635.84
2022-09-28T10:26:40.452Z,94637.81
2022-09-28T10:29:50.720Z,94636.25
2022-09-28T10:32:50.927Z,94625.94
2022-09-28T10:35:47.957Z,94639.38
2022-09-28T10:38:48.297Z,94650.13
2022-09-28T10:41:51.802Z,94646.06
2022-09-28T10:45:04.601Z,94649.78
2022-09-28T10:48:05.209Z,94657.66
2022-09-28T10:51:07.664Z,94654.34
2022-09-28T10:54:04.779Z,94656.28
2022-09-28T10:57:01.742Z,94656.19
2022-09-28T10:59:58.586Z,94665.16
2022-09-28T11:02:55.734Z,94662.53
2022-09-28T11:06:02.964Z,94672.88
2022-09-28T11:09:19.539Z,94663.94
2022-09-28T11:12:24.188Z,94661.59
2022-09-28T11:15:27.248Z,94657.53
2022-09-28T11:18:34.646Z,94657.53
2022-09-28T11:21:43.488Z,94659.91
2022-09-28T11:24:40.313Z,94663.34
2022-09-28T11:27:37.169Z,94660.94
2022-09-28T11:30:34.737Z,94663.53
2022-09-28T11:33:36.741Z,94657.81
2022-09-28T11:36:51.185Z,94664.03
2022-09-28T11:40:49.411Z,94666.59
2022-09-28T11:44:17.962Z,94654.28
2022-09-28T11:47:38.653Z,94658.03
2022-09-28T11:50:54.657Z,94662.28
2022-09-28T11:53:59.860Z,94668.34
2022-09-28T11:57:01.124Z,94661.91
2022-09-28T12:00:05.885Z,94663.06
2022-09-28T12:03:21.945Z,94671.25
2022-09-28T12:06:24.850Z,94669.25
2022-09-28T12:09:28.558Z,94675.69
2022-09-28T12:13:00.054Z,94678.06
2022-09-28T12:16:38.395Z,94666.69
2022-09-28T12:19:45.073Z,94667.69
2022-09-28T12:22:52.159Z,94678.81
2022-09-28T12:26:00.099Z,94675.72
2022-09-28T12:29:01.965Z,94662.69
2022-09-28T12:32:41.566Z,94658.78
2022-09-28T12:36:10.096Z,94649.00
2022-09-28T12:39:57.918Z,94648.03
2022-09-28T12:43:33.667Z,94652.16
2022-09-28T12:47:12.605Z,94648.06
2022-09-28T12:50:57.485Z,94640.75
2022-09-28T12:54:38.826Z,94652.59
2022-09-28T12:58:18.829Z,94655.13
2022-09-28T13:02:16.140Z,94662.34
2022-09-28T13:05:34.482Z,94660.34
2022-09-28T13:09:01.552Z,94673.94
2022-09-28T13:12:26.452Z,94682.75
2022-09-28T13:15:40.114Z,94681.84
2022-09-28T13:19:13.891Z,94672.94
2022-09-28T13:22:46.689Z,94675.00
2022-09-28T13:25:59.345Z,94675.16
2022-09-28T13:29:04.821Z,94669.28
2022-09-28T13:36:41.675Z,94675.69
2022-09-28T13:39:45.964Z,94672.50
2022-09-28T13:42:45.929Z,94678.78
2022-09-28T13:45:54.724Z,94681.72
2022-09-28T13:49:17.740Z,94671.47
2022-09-28T13:52:48.329Z,94682.72
2022-09-28T13:56:36.935Z,94681.22
2022-09-28T13:59:54.300Z,94687.50
2022-09-28T14:03:25.558Z,94695.66
2022-09-28T14:06:32.280Z,94707.97
2022-09-28T14:09:48.711Z,94713.78
2022-09-28T14:12:51.392Z,94718.13
2022-09-28T14:15:48.466Z,94723.47
2022-09-28T14:19:02.580Z,94725.81
2022-09-28T14:22:32.843Z,94718.59
2022-09-28T14:25:59.071Z,94716.16
2022-09-28T14:29:29.673Z,94722.16
2022-09-28T14:32:36.018Z,94727.38
2022-09-28T14:35:46.369Z,94735.50
2022-09-28T14:39:08.195Z,94732.16
2022-09-28T14:42:15.638Z,94721.75
2022-09-28T14:45:12.328Z,94730.94
2022-09-28T14:48:17.994Z,94723.47
2022-09-28T14:51:26.760Z,94728.63
2022-09-28T14:54:27.233Z,94738.25
2022-09-28T14:57:31.109Z,94730.81
2022-09-28T15:00:31.765Z,94741.72
2022-09-28T15:03:32.942Z,94730.56
2022-09-28T15:06:46.148Z,94739.44
2022-09-28T15:09:42.949Z,94730.06
2022-09-28T15:12:43.983Z,94733.91
2022-09-28T15:15:43.628Z,94737.72
2022-09-28T15:19:21.368Z,94746.47
2022-09-28T15:22:20.010Z,94751.28
2022-09-28T15:25:22.691Z,94744.03
2022-09-28T15:28:22.712Z,94767.84
2022-09-28T15:31:24.294Z,94766.28
2022-09-28T15:34:51.526Z,94772.19
2022-09-28T15:37:52.635Z,94774.50
2022-09-28T15:40:49.899Z,94771.63
2022-09-28T15:44:29.519Z,94779.63
2022-09-28T15:47:29.423Z,94783.69
2022-09-28T15:50:29.960Z,94782.47
2022-09-28T15:53:27.660Z,94796.91
2022-09-28T15:56:26.131Z,94795.88
2022-09-28T15:59:39.427Z,94811.00
2022-09-28T16:02:36.395Z,94803.03
2022-09-28T16:05:46.135Z,94812.44
2022-09-28T16:08:48.982Z,94815.19
2022-09-28T16:11:48.548Z,94814.97
2022-09-28T16:14:51.063Z,94825.63
2022-09-28T16:18:01.443Z,94824.22
2022-09-28T16:21:45.634Z,94825.31
2022-09-28T16:24:42.547Z,94817.56
2022-09-28T16:27:43.385Z,94818.47
2022-09-28T16:30:59.457Z,94825.44
2022-09-28T16:34:02.171Z,94829.00
2022-09-28T16:36:59.009Z,94833.31
2022-09-28T16:39:55.887Z,94835.44
2022-09-28T16:42:58.230Z,94836.69
2022-09-28T16:46:00.925Z,94844.34
2022-09-28T16:48:59.747Z,94840.00
2022-09-28T16:51:56.609Z,94847.00
2022-09-28T16:55:35.791Z,94851.69
2022-09-28T16:58:31.212Z,94854.59
2022-09-28T17:01:30.307Z,94848.72
2022-09-28T17:04:27.330Z,94850.44
2022-09-28T17:07:24.308Z,94855.91
2022-09-28T17:10:50.064Z,94852.22
2022-09-28T17:13:59.013Z,94854.09
2022-09-28T17:17:08.026Z,94862.31
2022-09-28T17:20:27.232Z,94873.22
2022-09-28T17:23:24.101Z,94871.78
2022-09-28T17:26:30.386Z,94873.56
2022-09-28T17:29:27.922Z,94878.38
2022-09-28T17:32:24.726Z,94869.34
2022-09-28T17:35:25.567Z,94876.78
2022-09-28T17:38:22.824Z,94879.06
2022-09-28T17:41:21.077Z,94876.41
2022-09-28T17:44:19.817Z,94876.38
2022-09-28T17:47:16.709Z,94880.38
2022-09-28T17:50:27.811Z,94890.53
2022-09-28T17:53:24.883Z,94892.25
2022-09-28T17:56:22.416Z,94884.34
2022-09-28T17:59:19.281Z,94894.66
2022-09-28T18:02:16.177Z,94890.09
2022-09-28T18:05:16.580Z,94888.56
2022-09-28T18:08:19.291Z,94885.91
2022-09-28T18:11:17.370Z,94883.59
2022-09-28T18:14:14.230Z,94896.41
2022-09-28T18:17:11.101Z,94896.28
2022-09-28T18:20:10.011Z,94887.22
2022-09-28T18:23:06.869Z,94902.69
2022-09-28T18:26:04.796Z,94907.56
2022-09-28T18:29:01.691Z,94911.63
2022-09-28T18:31:58.572Z,94905.53
2022-09-28T18:34:55.509Z,94909.59
2022-09-28T18:37:52.445Z,94917.13
2022-09-28T18:40:49.799Z,94928.25
2022-09-28T18:43:50.409Z,94929.16
2022-09-28T18:46:47.372Z,94931.97
2022-09-28T18:49:46.692Z,94940.72
2022-09-28T18:52:45.251Z,94932.28
2022-09-28T18:55:43.416Z,94940.56
2022-09-28T18:58:42.185Z,94941.22
2022-09-28T19:01:40.232Z,94934.94
2022-09-28T19:04:38.682Z,94941.66
2022-09-28T19:07:36.117Z,94942.00
2022-09-28T19:10:32.942Z,94938.09
2022-09-28T19:13:29.763Z,94937.59
2022-09-28T19:16:29.421Z,94933.69
2022-09-28T19:19:26.517Z,94946.81
2022-09-28T19:22:23.364Z,94948.09
2022-09-28T19:25:20.198Z,94942.31
2022-09-28T19:28:17.057Z,94955.09
2022-09-28T19:31:14.077Z,94953.53
2022-09-28T19:34:13.505Z,94956.38
2022-09-28T19:37:11.296Z,94959.19
2022-09-28T19:40:08.810Z,94959.19
2022-09-28T19:43:06.276Z,94951.97
2022-09-28T19:46:06.385Z,94966.22
2022-09-28T19:49:06.973Z,94962.47
2022-09-28T19:52:22.069Z,94967.91
2022-09-28T19:55:21.323Z,94974.50
2022-09-28T19:58:18.185Z,94972.94
2022-09-28T20:01:15.162Z,94977.63
2022-09-28T20:04:12.365Z,94977.78
2022-09-28T20:07:09.402Z,94987.00
2022-09-28T20:10:06.653Z,94988.09
2022-09-28T20:13:03.666Z,94979.03
2022-09-28T20:16:16.195Z,94985.41
2022-09-28T20:19:13.251Z,94983.25
2022-09-28T20:22:10.983Z,94991.06
2022-09-28T20:25:08.074Z,94996.22
2022-09-28T20:28:05.920Z,95001.66
2022-09-28T20:31:09.027Z,94998.56
2022-09-28T20:34:06.865Z,95004.63
2022-09-28T20:37:03.706Z,95006.38
2022-09-28T20:40:01.775Z,95004.34
2022-09-28T20:42:58.652Z,95007.00
2022-09-28T20:45:56.880Z,95020.91
2022-09-28T20:48:55.732Z,95010.72
2022-09-28T20:51:52.582Z,95021.53
2022-09-28T20:54:49.406Z,95015.72
2022-09-28T20:57:46.231Z,95013.81
2022-09-28T21:00:43.137Z,95015.69
2022-09-28T21:03:40.096Z,95017.44
2022-09-28T21:06:40.332Z,95021.34
2022-09-28T21:09:37.766Z,95023.06
2022-09-28T21:12:34.772Z,95023.56
2022-09-28T21:15:31.634Z,95020.16
2022-09-28T21:18:28.481Z,95028.31
2022-09-28T21:21:26.302Z,95036.63
2022-09-28T21:24:23.135Z,95032.88
2022-09-28T21:27:19.943Z,95026.03
2022-09-28T21:30:18.112Z,95029.38
2022-09-28T21:33:14.923Z,95032.06
2022-09-28T21:36:11.952Z,95032.03
2022-09-28T21:39:10.514Z,95032.38
2022-09-28T21:42:07.529Z,95035.81
2022-09-28T21:45:04.896Z,95033.31
2022-09-28T21:48:01.835Z,95040.53
2022-09-28T21:51:07.788Z,95039.59
2022-09-28T21:54:04.910Z,95044.59
2022-09-28T21:57:01.724Z,95044.03
2022-09-28T21:59:58.550Z,95043.91
2022-09-28T22:02:55.409Z,95051.25
2022-09-28T22:05:52.438Z,95044.59
2022-09-28T22:08:50.586Z,95042.88
2022-09-28T22:11:49.026Z,95044.75
2022-09-28T22:14:46.210Z,95043.78
2022-09-28T22:17:43.034Z,95045.31
2022-09-28T22:20:39.851Z,95043.78
2022-09-28T22:23:37.818Z,95048.47
2022-09-28T22:26:37.160Z,95046.56
2022-09-28T22:29:34.012Z,95037.88
2022-09-28T22:32:30.836Z,95047.41
2022-09-28T22:35:27.721Z,95040.19
2022-09-28T22:38:25.074Z,95047.25
2022-09-28T22:41:22.094Z,95040.88
2022-09-28T22:44:20.174Z,95036.03
2022-09-28T22:47:17.287Z,95039.78
2022-09-28T22:50:14.199Z,95032.91
2022-09-28T22:53:13.403Z,95025.88
2022-09-28T22:56:14.631Z,95029.00
2022-09-28T22:59:14.722Z,95046.66
2022-09-28T23:02:11.676Z,95041.78
2022-09-28T23:05:08.645Z,95035.88
2022-09-28T23:08:05.525Z,95049.16
2022-09-28T23:11:03.512Z,95031.81
2022-09-28T23:14:00.491Z,95033.22
2022-09-28T23:16:57.325Z,95046.03
2022-09-28T23:19:54.135Z,95050.09
2022-09-28T23:22:51.100Z,95039.00
2022-09-28T23:25:48.064Z,95034.31
2022-09-28T23:28:45.945Z,95039.31
2022-09-28T23:31:42.828Z,95033.06
2022-09-28T23:34:40.028Z,95026.31
2022-09-28T23:37:37.964Z,95026.31
2022-09-28T23:40:34.899Z,95029.91
2022-09-28T23:43:31.981Z,95036.75
2022-09-28T23:46:28.868Z,95036.91
2022-09-28T23:49:25.706Z,95036.88
2022-09-28T23:52:22.548Z,95038.16
2022-09-28T23:55:19.356Z,95041.88
2022-09-28T23:58:16.495Z,95043.47
